Time;durP1;ratioP1;P1;durP2;ratioP2;P2;SDS_P1;SDS_P2;PMS_P1;PMS_P2;Temp;Humidity;BMP_temperature;BMP_pressure;BME280_temperature;BME280_humidity;BME280_pressure;Samples;Min_cycle;Max_cycle;Signal;HPM_P1;HPM_P2
2022/03/23 00:01:28;;;;;;;11.77;3.43;;;28.20;99.90;;;;;;4916194;29;20233;-68
2022/03/23 00:03:55;;;;;;;12.03;3.73;;;27.50;99.90;;;;;;4915968;29;20184;-68
2022/03/23 00:06:24;;;;;;;9.27;4.00;;;27.50;99.90;;;;;;4914996;29;20217;-67
2022/03/23 00:08:51;;;;;;;10.53;3.20;;;27.60;99.90;;;;;;4916037;29;20714;-67
2022/03/23 00:11:19;;;;;;;16.87;4.27;;;27.70;99.90;;;;;;4915818;29;20185;-68
2022/03/23 00:13:47;;;;;;;12.83;4.27;;;27.80;99.90;;;;;;4915304;29;20233;-68
2022/03/23 00:16:15;;;;;;;13.67;3.30;;;27.30;99.90;;;;;;4915658;29;20308;-67
2022/03/23 00:18:42;;;;;;;14.23;3.97;;;27.50;99.90;;;;;;4915791;29;20337;-69
2022/03/23 00:21:09;;;;;;;14.47;4.23;;;27.40;99.90;;;;;;4915145;29;20196;-67
2022/03/23 00:23:37;;;;;;;15.57;3.63;;;27.60;99.90;;;;;;4913551;29;20559;-66
2022/03/23 00:26:04;;;;;;;15.17;4.10;;;27.80;99.90;;;;;;4915527;29;20284;-66
2022/03/23 00:28:31;;;;;;;16.40;3.57;;;28.00;99.90;;;;;;4912827;29;20185;-68
2022/03/23 00:30:59;;;;;;;13.70;3.23;;;28.30;99.90;;;;;;4915231;29;20185;-69
2022/03/23 00:33:26;;;;;;;12.47;3.87;;;28.10;99.90;;;;;;4914798;29;20197;-67
2022/03/23 00:35:55;;;;;;;13.43;3.43;;;28.50;99.90;;;;;;4915069;29;20323;-67
2022/03/23 00:38:22;;;;;;;11.00;3.30;;;28.40;99.90;;;;;;4915331;29;20635;-68
2022/03/23 00:40:50;;;;;;;8.10;3.13;;;28.10;99.90;;;;;;4915301;29;20212;-67
2022/03/23 00:43:17;;;;;;;12.30;3.17;;;27.70;99.90;;;;;;4915045;29;20196;-67
2022/03/23 00:45:45;;;;;;;14.60;3.03;;;27.70;99.90;;;;;;4915535;29;20562;-67
2022/03/23 00:48:13;;;;;;;19.50;3.27;;;27.80;99.90;;;;;;4915595;29;20186;-67
2022/03/23 00:50:40;;;;;;;14.37;4.20;;;27.70;99.90;;;;;;4915265;29;20203;-67
2022/03/23 00:53:08;;;;;;;15.23;3.47;;;27.30;99.90;;;;;;4915497;29;20264;-68
2022/03/23 00:55:35;;;;;;;13.47;3.40;;;27.30;99.90;;;;;;4915532;29;20217;-69
2022/03/23 00:58:03;;;;;;;11.07;3.13;;;27.10;99.90;;;;;;4915106;29;20212;-69
2022/03/23 01:00:30;;;;;;;13.27;3.67;;;26.80;99.90;;;;;;4915353;29;20188;-68
2022/03/23 01:02:58;;;;;;;12.57;3.20;;;27.30;99.90;;;;;;4915252;29;20233;-68
2022/03/23 01:05:26;;;;;;;12.83;3.80;;;27.70;99.90;;;;;;4918889;29;20192;-68
2022/03/23 01:07:54;;;;;;;12.07;3.80;;;28.40;99.90;;;;;;4918983;29;20185;-68
2022/03/23 01:10:21;;;;;;;12.97;3.23;;;28.40;99.90;;;;;;4918975;29;20197;-68
2022/03/23 01:12:49;;;;;;;11.57;3.13;;;28.10;99.90;;;;;;4919170;29;20272;-68
2022/03/23 01:15:21;;;;;;;14.90;3.27;;;27.90;99.90;;;;;;4919163;29;20233;-67
2022/03/23 01:17:49;;;;;;;11.77;3.20;;;27.60;99.90;;;;;;4918923;29;20264;-68
2022/03/23 01:20:19;;;;;;;15.87;3.30;;;28.00;99.90;;;;;;4918996;29;20197;-69
2022/03/23 01:22:47;;;;;;;16.00;4.00;;;27.90;99.90;;;;;;4919165;29;20198;-68
2022/03/23 01:25:15;;;;;;;11.57;2.83;;;27.60;99.90;;;;;;4919016;29;20547;-68
2022/03/23 01:27:43;;;;;;;12.60;3.30;;;27.40;99.90;;;;;;4918663;29;20189;-69
2022/03/23 01:30:13;;;;;;;8.50;2.97;;;27.20;99.90;;;;;;4918856;29;20182;-68
2022/03/23 01:32:42;;;;;;;10.27;2.97;;;26.90;99.90;;;;;;4918672;29;20193;-68
2022/03/23 01:35:10;;;;;;;14.27;3.90;;;26.70;99.90;;;;;;4918851;29;20670;-69
2022/03/23 01:37:37;;;;;;;10.50;3.23;;;26.60;99.90;;;;;;4918547;29;20185;-68
2022/03/23 01:40:07;;;;;;;11.43;3.37;;;26.80;99.90;;;;;;4918674;29;20189;-68
2022/03/23 01:42:34;;;;;;;8.83;3.27;;;27.00;99.90;;;;;;4918572;29;20219;-68
2022/03/23 01:45:03;;;;;;;11.70;3.23;;;27.30;99.90;;;;;;4918703;29;20329;-69
2022/03/23 01:47:30;;;;;;;13.87;3.13;;;27.80;99.90;;;;;;4918400;29;20308;-68
2022/03/23 01:49:58;;;;;;;15.77;3.47;;;27.50;99.90;;;;;;4918486;29;20189;-69
2022/03/23 01:52:29;;;;;;;10.27;3.50;;;27.00;99.90;;;;;;4918272;29;20209;-69
2022/03/23 01:54:57;;;;;;;9.50;3.30;;;26.50;99.90;;;;;;4918575;29;20221;-69
2022/03/23 01:57:25;;;;;;;19.00;4.17;;;26.90;99.90;;;;;;4918186;29;20174;-69
2022/03/23 01:59:52;;;;;;;13.77;3.97;;;26.40;99.90;;;;;;4918366;29;20209;-69
2022/03/23 02:02:20;;;;;;;12.63;3.77;;;26.00;99.90;;;;;;4917123;29;20717;-69
2022/03/23 02:04:47;;;;;;;11.77;3.90;;;26.10;99.90;;;;;;4918299;29;20177;-68
2022/03/23 02:07:14;;;;;;;9.07;4.03;;;25.90;99.90;;;;;;4916655;29;20212;-69
2022/03/23 02:09:42;;;;;;;10.97;3.43;;;26.10;99.90;;;;;;4918030;29;20196;-69
2022/03/23 02:12:11;;;;;;;6.70;3.50;;;26.80;99.90;;;;;;4916969;29;20624;-69
2022/03/23 02:14:39;;;;;;;9.63;3.13;;;26.50;99.90;;;;;;4916905;29;20205;-69
2022/03/23 02:17:06;;;;;;;6.20;2.90;;;26.30;99.90;;;;;;4915708;29;20647;-69
2022/03/23 02:19:35;;;;;;;7.10;3.50;;;27.00;99.90;;;;;;4917769;29;20258;-70
2022/03/23 02:22:02;;;;;;;12.67;4.03;;;26.90;99.90;;;;;;4917965;29;20177;-69
2022/03/23 02:24:32;;;;;;;7.97;3.60;;;27.00;99.90;;;;;;4917935;29;20628;-69
2022/03/23 02:27:00;;;;;;;8.70;3.67;;;26.90;99.90;;;;;;4917751;29;20573;-69
2022/03/23 02:29:31;;;;;;;6.37;3.00;;;28.00;99.90;;;;;;4917452;29;20272;-69
2022/03/23 02:32:01;;;;;;;10.07;3.20;;;28.00;99.90;;;;;;4917815;29;20170;-70
2022/03/23 02:34:29;;;;;;;8.23;3.23;;;27.30;99.90;;;;;;4917340;29;20193;-69
2022/03/23 02:36:58;;;;;;;7.83;2.73;;;27.50;99.90;;;;;;4917535;29;20229;-70
2022/03/23 02:39:28;;;;;;;7.27;2.53;;;27.00;99.90;;;;;;4917844;29;20220;-70
2022/03/23 02:41:56;;;;;;;7.70;3.30;;;27.10;99.90;;;;;;4917298;29;20197;-70
2022/03/23 02:44:29;;;;;;;7.87;3.17;;;27.30;99.90;;;;;;4917242;29;20189;-69
2022/03/23 02:46:57;;;;;;;8.70;2.83;;;27.90;99.90;;;;;;4898802;29;20188;-70
2022/03/23 02:49:25;;;;;;;9.47;3.03;;;27.30;99.90;;;;;;4900633;29;20178;-69
2022/03/23 02:51:52;;;;;;;7.97;2.80;;;27.10;99.90;;;;;;4917046;29;20224;-69
2022/03/23 03:01:52;;;;;;;12.53;2.83;;;26.10;99.90;;;;;;4917756;29;20564;-69
2022/03/23 03:03:52;;;;;;;13.33;2.60;;;25.50;99.90;;;;;;4916989;29;20383;-69
2022/03/23 03:06:19;;;;;;;9.80;2.60;;;25.20;99.90;;;;;;4917616;29;20277;-69
2022/03/23 03:08:49;;;;;;;7.13;2.17;;;25.20;99.90;;;;;;4915798;29;20208;-68
2022/03/23 03:11:18;;;;;;;6.77;2.30;;;25.20;99.90;;;;;;4917153;29;20259;-70
2022/03/23 03:13:51;;;;;;;10.90;2.80;;;25.50;99.90;;;;;;4917064;29;20193;-70
2022/03/23 03:16:20;;;;;;;10.53;2.67;;;25.40;99.90;;;;;;4917149;29;20622;-69
2022/03/23 03:18:47;;;;;;;6.67;2.03;;;25.50;99.90;;;;;;4916710;29;20185;-69
2022/03/23 03:21:15;;;;;;;8.87;2.50;;;25.70;99.90;;;;;;4917235;29;20268;-69
2022/03/23 03:23:43;;;;;;;7.70;2.20;;;25.60;99.90;;;;;;4917030;29;20186;-69
2022/03/23 03:26:12;;;;;;;9.50;2.53;;;25.60;99.90;;;;;;4916336;29;20237;-70
2022/03/23 03:28:41;;;;;;;9.87;2.23;;;25.70;99.90;;;;;;4916651;29;20177;-70
2022/03/23 03:31:11;;;;;;;10.67;2.13;;;25.50;99.90;;;;;;4916531;29;20193;-71
2022/03/23 03:33:39;;;;;;;13.97;2.20;;;25.60;99.90;;;;;;4916870;29;20185;-69
2022/03/23 03:36:08;;;;;;;10.30;2.17;;;25.50;99.90;;;;;;4916694;29;20655;-70
2022/03/23 03:38:36;;;;;;;8.37;2.47;;;25.60;99.90;;;;;;4916306;29;20200;-69
2022/03/23 03:41:04;;;;;;;5.73;1.80;;;25.70;99.90;;;;;;4916767;29;20216;-69
2022/03/23 03:43:32;;;;;;;8.40;2.20;;;25.60;99.90;;;;;;4915518;29;20607;-69
2022/03/23 03:46:01;;;;;;;12.13;2.13;;;25.20;99.90;;;;;;4916491;29;20215;-69
2022/03/23 03:48:28;;;;;;;8.87;2.03;;;25.10;99.90;;;;;;4916251;29;20199;-70
2022/03/23 03:50:56;;;;;;;9.83;2.40;;;25.10;99.90;;;;;;4916180;29;20197;-70
2022/03/23 03:53:23;;;;;;;12.03;2.40;;;25.40;99.90;;;;;;4914936;29;20299;-69
2022/03/23 03:55:50;;;;;;;9.50;2.37;;;25.50;99.90;;;;;;4916453;29;20228;-69
2022/03/23 03:58:18;;;;;;;11.13;2.13;;;25.50;99.90;;;;;;4916015;29;20251;-70
2022/03/23 04:00:46;;;;;;;7.73;2.00;;;25.50;99.90;;;;;;4916028;29;20213;-71
2022/03/23 04:03:14;;;;;;;87.80;8.13;;;25.60;99.90;;;;;;4916391;29;20970;-69
2022/03/23 04:05:41;;;;;;;11.73;2.20;;;25.70;99.90;;;;;;4916188;29;20185;-70
2022/03/23 04:08:09;;;;;;;9.23;1.83;;;25.60;99.90;;;;;;4916296;29;20628;-69
2022/03/23 04:10:37;;;;;;;10.73;2.17;;;25.50;99.90;;;;;;4915870;29;20201;-69
2022/03/23 04:13:07;;;;;;;9.83;2.03;;;25.40;99.90;;;;;;4916586;29;20178;-69
2022/03/23 04:15:36;;;;;;;12.83;2.10;;;25.30;99.90;;;;;;4916226;29;20765;-69
2022/03/23 04:18:04;;;;;;;7.23;2.37;;;25.30;99.90;;;;;;4915676;29;20643;-69
2022/03/23 04:20:32;;;;;;;6.30;1.93;;;25.10;99.90;;;;;;4915688;29;20203;-70
2022/03/23 04:22:59;;;;;;;7.17;1.90;;;25.10;99.90;;;;;;4914760;29;20652;-69
2022/03/23 04:25:27;;;;;;;8.77;2.13;;;25.20;99.90;;;;;;4915812;29;20232;-70
2022/03/23 04:27:56;;;;;;;8.63;1.93;;;25.00;99.90;;;;;;4916020;29;20181;-69
2022/03/23 04:30:30;;;;;;;11.63;2.03;;;24.80;99.90;;;;;;4915318;29;20289;-69
2022/03/23 04:32:58;;;;;;;10.77;1.80;;;24.80;99.90;;;;;;4915927;29;20196;-69
2022/03/23 04:35:26;;;;;;;7.13;1.63;;;24.80;99.90;;;;;;4915932;29;20670;-70
2022/03/23 04:37:53;;;;;;;9.37;1.97;;;24.90;99.90;;;;;;4915005;29;20203;-69
2022/03/23 04:40:22;;;;;;;12.07;2.00;;;25.00;99.90;;;;;;4915102;29;20223;-70
2022/03/23 04:42:50;;;;;;;8.10;2.47;;;25.00;99.90;;;;;;4914507;29;20188;-69
2022/03/23 04:45:18;;;;;;;11.03;2.17;;;24.90;99.90;;;;;;4915217;29;20192;-70
2022/03/23 04:47:45;;;;;;;9.30;1.80;;;24.90;99.90;;;;;;4915506;29;20639;-69
2022/03/23 04:50:14;;;;;;;7.93;1.80;;;25.00;99.90;;;;;;4914813;29;20675;-70
2022/03/23 04:52:43;;;;;;;8.10;1.70;;;24.60;99.90;;;;;;4913714;29;20189;-69
2022/03/23 04:55:12;;;;;;;11.77;2.40;;;24.50;99.90;;;;;;4915008;29;20219;-69
2022/03/23 04:57:43;;;;;;;9.23;1.70;;;24.50;99.90;;;;;;4914933;29;20181;-69
2022/03/23 05:00:15;;;;;;;6.93;2.20;;;24.50;99.90;;;;;;4915091;29;20544;-69
2022/03/23 05:02:44;;;;;;;7.37;2.40;;;24.40;99.90;;;;;;4915300;29;20315;-68
2022/03/23 05:05:12;;;;;;;10.57;2.03;;;24.60;99.90;;;;;;4915209;29;20192;-69
2022/03/23 05:07:41;;;;;;;11.17;1.70;;;24.60;99.90;;;;;;4915566;29;20178;-69
2022/03/23 05:10:09;;;;;;;13.03;2.20;;;24.90;99.90;;;;;;4914879;29;20177;-69
2022/03/23 05:12:38;;;;;;;10.93;2.27;;;25.10;99.90;;;;;;4912601;29;20547;-70
2022/03/23 05:15:08;;;;;;;15.90;2.00;;;25.50;99.90;;;;;;4914040;29;20217;-70
2022/03/23 05:17:37;;;;;;;8.70;2.00;;;25.50;99.90;;;;;;4915001;29;20177;-69
2022/03/23 05:20:05;;;;;;;8.93;1.97;;;25.40;99.90;;;;;;4914769;29;20711;-70
2022/03/23 05:22:33;;;;;;;12.87;2.30;;;25.00;99.90;;;;;;4915112;29;20208;-69
2022/03/23 05:25:00;;;;;;;13.33;2.37;;;24.80;99.90;;;;;;4914950;29;20185;-68
2022/03/23 05:27:28;;;;;;;12.47;2.40;;;24.60;99.90;;;;;;4914620;29;20196;-68
2022/03/23 05:29:55;;;;;;;9.77;1.87;;;24.40;99.90;;;;;;4914531;29;20174;-68
2022/03/23 05:32:22;;;;;;;11.63;1.97;;;24.20;99.90;;;;;;4914779;29;20257;-68
2022/03/23 05:34:50;;;;;;;10.87;2.30;;;24.00;99.90;;;;;;4914562;29;20215;-69
2022/03/23 05:37:18;;;;;;;6.57;1.90;;;23.80;99.90;;;;;;4912082;29;20177;-69
2022/03/23 05:39:47;;;;;;;6.90;2.40;;;23.80;99.90;;;;;;4914957;29;20185;-69
2022/03/23 05:42:14;;;;;;;7.90;2.03;;;23.80;99.90;;;;;;4915247;29;20177;-69
2022/03/23 05:44:42;;;;;;;8.53;2.20;;;23.80;99.90;;;;;;4915253;29;20563;-69
2022/03/23 05:47:09;;;;;;;6.73;1.60;;;23.80;99.90;;;;;;4914924;29;20625;-69
2022/03/23 05:49:36;;;;;;;10.87;1.97;;;23.60;99.90;;;;;;4915605;29;20198;-68
2022/03/23 05:52:04;;;;;;;16.87;2.70;;;23.50;99.90;;;;;;4918482;29;20533;-67
2022/03/23 05:54:33;;;;;;;9.20;2.23;;;23.40;99.90;;;;;;4918373;29;20247;-68
2022/03/23 05:57:03;;;;;;;14.67;2.40;;;23.30;99.90;;;;;;4918520;29;20271;-68
2022/03/23 05:59:31;;;;;;;7.07;1.37;;;23.40;99.90;;;;;;4918328;29;20199;-67
2022/03/23 06:02:00;;;;;;;9.63;1.70;;;23.20;99.90;;;;;;4918166;29;20239;-68
2022/03/23 06:04:27;;;;;;;6.70;1.83;;;23.20;99.90;;;;;;4918255;29;20544;-68
2022/03/23 06:06:55;;;;;;;14.10;1.90;;;23.20;99.90;;;;;;4918226;29;20249;-68
2022/03/23 06:09:23;;;;;;;15.73;2.43;;;23.20;99.90;;;;;;4918256;29;20173;-68
2022/03/23 06:11:51;;;;;;;15.93;2.47;;;23.20;99.90;;;;;;4918390;29;20211;-69
2022/03/23 06:14:19;;;;;;;12.97;2.10;;;23.10;99.90;;;;;;4918066;29;20240;-68
2022/03/23 06:16:46;;;;;;;14.83;2.53;;;23.00;99.90;;;;;;4916643;29;20292;-68
2022/03/23 06:19:13;;;;;;;18.27;2.13;;;22.90;99.90;;;;;;4917887;29;20204;-67
2022/03/23 06:21:41;;;;;;;7.30;1.80;;;22.70;99.90;;;;;;4918178;29;20188;-68
2022/03/23 06:24:09;;;;;;;13.47;2.53;;;22.70;99.90;;;;;;4917865;29;20552;-67
2022/03/23 06:26:39;;;;;;;9.67;2.50;;;22.70;99.90;;;;;;4917763;29;20934;-68
2022/03/23 06:29:06;;;;;;;9.37;2.07;;;22.70;99.90;;;;;;4917457;29;20189;-68
2022/03/23 06:31:33;;;;;;;12.20;3.07;;;22.40;99.90;;;;;;4917721;29;20265;-68
2022/03/23 06:34:04;;;;;;;10.43;2.30;;;22.40;99.90;;;;;;4917503;29;20217;-68
2022/03/23 06:36:35;;;;;;;17.40;2.53;;;22.50;99.90;;;;;;4917731;29;20335;-68
2022/03/23 06:39:03;;;;;;;10.20;2.17;;;22.40;99.90;;;;;;4917466;29;20182;-68
2022/03/23 06:41:30;;;;;;;11.50;2.07;;;22.40;99.90;;;;;;4917748;29;20177;-68
2022/03/23 06:43:58;;;;;;;13.10;2.40;;;22.40;99.90;;;;;;4917447;29;20197;-68
2022/03/23 06:46:26;;;;;;;15.83;2.50;;;22.40;99.90;;;;;;4916268;29;20279;-69
2022/03/23 06:48:53;;;;;;;15.40;2.30;;;22.40;99.90;;;;;;4917492;29;20248;-69
2022/03/23 06:51:21;;;;;;;9.67;2.20;;;22.40;99.90;;;;;;4917649;29;20265;-69
2022/03/23 06:53:48;;;;;;;12.40;2.30;;;22.40;99.90;;;;;;4917620;29;20187;-67
2022/03/23 06:56:16;;;;;;;10.20;2.20;;;22.40;99.90;;;;;;4917284;29;20225;-68
2022/03/23 06:58:43;;;;;;;13.07;2.23;;;22.40;99.90;;;;;;4917315;29;20188;-68
2022/03/23 07:01:10;;;;;;;17.20;2.57;;;22.30;99.90;;;;;;4916354;29;20225;-68
2022/03/23 07:03:38;;;;;;;16.63;3.07;;;22.20;99.90;;;;;;4917430;29;20181;-68
2022/03/23 07:06:05;;;;;;;7.20;2.10;;;22.30;99.90;;;;;;4916158;29;20287;-68
2022/03/23 07:11:18;;;;;;;7.13;1.73;;;22.30;99.90;;;;;;4916696;29;20200;-68
2022/03/23 07:13:45;;;;;;;8.03;1.73;;;22.20;99.90;;;;;;4917220;29;20189;-68
2022/03/23 07:16:12;;;;;;;12.90;2.83;;;22.20;99.90;;;;;;4917304;29;20575;-68
2022/03/23 07:18:40;;;;;;;14.53;2.37;;;22.20;99.90;;;;;;4917055;29;20264;-68
2022/03/23 07:21:07;;;;;;;7.77;1.73;;;22.20;99.90;;;;;;4917105;29;20202;-68
2022/03/23 07:23:35;;;;;;;8.03;2.47;;;22.20;99.90;;;;;;4916719;29;20197;-68
2022/03/23 07:26:02;;;;;;;10.47;1.90;;;22.20;99.90;;;;;;4923040;29;20192;-67
2022/03/23 07:28:31;;;;;;;20.67;3.10;;;22.20;99.90;;;;;;4924289;29;20182;-67
2022/03/23 07:30:59;;;;;;;14.07;2.20;;;22.20;99.90;;;;;;4921970;29;20192;-68
2022/03/23 07:33:26;;;;;;;16.20;3.13;;;22.20;99.90;;;;;;4924545;29;20259;-68
2022/03/23 07:35:54;;;;;;;13.53;2.53;;;22.20;99.90;;;;;;4925272;29;20217;-68
2022/03/23 07:38:21;;;;;;;16.13;2.83;;;22.10;99.90;;;;;;4924375;29;20595;-67
2022/03/23 07:40:48;;;;;;;8.50;2.13;;;22.10;99.90;;;;;;4919511;29;20666;-68
2022/03/23 07:43:16;;;;;;;11.40;2.10;;;22.10;99.90;;;;;;4917148;29;20678;-68
2022/03/23 07:45:43;;;;;;;14.43;2.20;;;22.10;99.90;;;;;;4917871;29;20186;-68
2022/03/23 07:48:11;;;;;;;8.13;2.47;;;22.10;99.90;;;;;;4917392;29;20173;-67
2022/03/23 07:50:38;;;;;;;13.10;2.63;;;22.10;99.90;;;;;;4916385;29;20200;-68
2022/03/23 07:53:05;;;;;;;5.70;1.70;;;22.10;99.90;;;;;;4917043;29;20177;-68
2022/03/23 07:55:33;;;;;;;9.07;2.17;;;22.20;99.90;;;;;;4916585;29;20221;-68
2022/03/23 07:58:00;;;;;;;7.23;1.90;;;22.20;99.90;;;;;;4916585;29;20176;-67
2022/03/23 08:00:28;;;;;;;14.67;2.43;;;22.20;99.90;;;;;;4915875;29;20604;-68
2022/03/23 08:02:55;;;;;;;8.20;2.23;;;22.10;99.90;;;;;;4916405;29;20229;-68
2022/03/23 08:05:22;;;;;;;12.00;2.27;;;22.10;99.90;;;;;;4915065;29;20185;-68
2022/03/23 08:07:50;;;;;;;9.40;2.43;;;22.00;99.90;;;;;;4916442;29;20237;-68
2022/03/23 08:10:17;;;;;;;13.83;2.50;;;22.00;99.90;;;;;;4915981;29;20257;-68
2022/03/23 08:12:45;;;;;;;14.37;2.93;;;22.00;99.90;;;;;;4914976;29;20183;-69
2022/03/23 08:15:12;;;;;;;11.33;2.10;;;22.00;99.90;;;;;;4915052;29;20619;-69
2022/03/23 08:17:40;;;;;;;15.77;2.77;;;22.00;99.90;;;;;;4915972;29;20186;-69
2022/03/23 08:23:00;;;;;;;16.17;3.00;;;21.90;99.90;;;;;;4916410;29;20250;-68
2022/03/23 08:25:28;;;;;;;15.07;2.80;;;21.90;99.90;;;;;;4915961;29;20264;-68
2022/03/23 08:27:58;;;;;;;14.33;2.63;;;21.90;99.90;;;;;;4914849;29;20216;-68
2022/03/23 08:30:26;;;;;;;15.37;3.50;;;21.80;99.90;;;;;;4915749;29;20629;-68
2022/03/23 08:32:54;;;;;;;19.57;2.97;;;21.70;99.90;;;;;;4897129;29;20181;-69
2022/03/23 08:35:21;;;;;;;15.33;2.57;;;21.80;99.90;;;;;;4897088;29;20222;-67
2022/03/23 08:37:48;;;;;;;19.83;2.60;;;21.70;99.90;;;;;;4906087;29;20185;-68
2022/03/23 08:40:16;;;;;;;15.80;2.80;;;21.70;99.90;;;;;;4915851;29;20212;-69
2022/03/23 08:42:44;;;;;;;11.47;2.50;;;21.80;99.90;;;;;;4915834;29;20208;-68
2022/03/23 08:45:12;;;;;;;19.00;2.97;;;21.70;99.90;;;;;;4915642;29;20194;-69
2022/03/23 08:47:40;;;;;;;14.83;3.33;;;21.70;99.90;;;;;;4915492;29;20207;-69
2022/03/23 08:50:10;;;;;;;13.40;2.67;;;21.70;99.90;;;;;;4915782;29;20182;-69
2022/03/23 08:52:38;;;;;;;15.10;2.63;;;21.70;99.90;;;;;;4914283;29;20208;-68
2022/03/23 08:55:14;;;;;;;18.27;3.10;;;21.80;99.90;;;;;;4914901;29;20254;-68
2022/03/23 08:57:45;;;;;;;16.43;3.43;;;21.70;99.90;;;;;;4915032;29;20214;-70
2022/03/23 09:00:13;;;;;;;18.80;3.83;;;21.70;99.90;;;;;;4916439;29;20252;-71
2022/03/23 09:02:41;;;;;;;13.57;2.70;;;21.70;99.90;;;;;;4916460;29;20761;-71
2022/03/23 09:05:11;;;;;;;16.07;3.07;;;21.60;99.90;;;;;;4916095;29;20196;-70
2022/03/23 09:07:40;;;;;;;13.90;2.60;;;21.60;99.90;;;;;;4897805;29;20184;-70
2022/03/23 09:10:09;;;;;;;18.03;3.30;;;21.60;99.90;;;;;;4907529;29;20284;-71
2022/03/23 09:12:40;;;;;;;20.40;3.90;;;21.60;99.90;;;;;;4916994;29;20185;-71
2022/03/23 09:15:13;;;;;;;19.00;3.43;;;21.60;99.90;;;;;;4916169;29;20260;-70
2022/03/23 09:17:42;;;;;;;16.80;3.40;;;21.60;99.90;;;;;;4899228;29;20208;-72
2022/03/23 09:20:12;;;;;;;17.80;3.37;;;21.60;99.90;;;;;;4915677;29;20613;-69
2022/03/23 09:22:41;;;;;;;18.73;3.83;;;21.60;99.90;;;;;;4916229;29;20787;-69
2022/03/23 09:25:11;;;;;;;9.63;2.63;;;21.60;99.90;;;;;;4922992;29;20176;-70
2022/03/23 09:27:43;;;;;;;19.37;3.43;;;21.60;99.90;;;;;;4936945;29;20185;-70
2022/03/23 09:30:13;;;;;;;21.77;3.03;;;21.60;99.90;;;;;;4934643;28;20215;-71
2022/03/23 09:32:42;;;;;;;16.53;3.47;;;21.60;99.90;;;;;;4933338;29;20172;-70
2022/03/23 09:35:15;;;;;;;17.87;3.83;;;21.50;99.90;;;;;;4920382;29;20223;-71
2022/03/23 09:37:49;;;;;;;27.90;5.37;;;21.40;99.90;;;;;;4935098;29;20195;-70
2022/03/23 09:40:32;;;;;;;22.77;3.87;;;21.50;99.90;;;;;;4923298;28;20340;-69
2022/03/23 09:43:02;;;;;;;14.50;3.70;;;21.50;99.90;;;;;;4920254;29;20194;-70
2022/03/23 09:48:31;;;;;;;21.33;3.30;;;21.40;99.90;;;;;;4919385;29;20575;-70
2022/03/23 09:50:59;;;;;;;23.37;3.90;;;21.40;99.90;;;;;;4919861;29;20178;-70
2022/03/23 09:53:27;;;;;;;15.23;2.70;;;21.40;99.90;;;;;;4919536;29;20724;-70
2022/03/23 09:55:55;;;;;;;26.87;3.80;;;21.40;99.90;;;;;;4920113;29;20221;-70
2022/03/23 09:58:24;;;;;;;22.23;3.80;;;21.40;99.90;;;;;;4919768;29;20189;-70
2022/03/23 10:00:52;;;;;;;17.80;3.83;;;21.30;99.90;;;;;;4919687;29;20181;-71
2022/03/23 10:03:54;;;;;;;18.00;3.17;;;21.30;99.90;;;;;;4919658;29;20647;-71
2022/03/23 10:06:52;;;;;;;15.03;3.33;;;21.20;99.90;;;;;;4889575;29;20193;-70
2022/03/23 10:09:37;;;;;;;18.27;3.93;;;21.20;99.90;;;;;;4919914;29;20188;-71
2022/03/23 10:12:11;;;;;;;20.17;3.77;;;21.10;99.90;;;;;;4920012;29;20177;-71
2022/03/23 10:15:12;;;;;;;19.50;3.77;;;21.10;99.90;;;;;;4918818;29;20191;-70
2022/03/23 10:18:14;;;;;;;16.27;3.30;;;21.00;99.90;;;;;;4919583;29;20181;-70
2022/03/23 10:20:42;;;;;;;24.50;4.20;;;20.90;99.90;;;;;;4861249;29;20186;-69
2022/03/23 10:23:09;;;;;;;20.37;3.80;;;20.90;99.90;;;;;;4897864;29;20646;-70
2022/03/23 10:25:42;;;;;;;15.77;3.47;;;20.90;99.90;;;;;;4919437;29;20185;-70
2022/03/23 10:28:14;;;;;;;18.50;3.13;;;20.90;99.90;;;;;;4918781;29;20240;-70
2022/03/23 10:30:47;;;;;;;17.83;3.90;;;20.90;99.90;;;;;;4917405;29;20559;-71
2022/03/23 10:33:23;;;;;;;15.00;3.00;;;20.90;99.90;;;;;;4918519;29;20670;-71
2022/03/23 10:35:52;;;;;;;13.70;3.23;;;20.90;99.90;;;;;;4899602;29;20299;-69
2022/03/23 10:38:24;;;;;;;13.23;3.13;;;20.90;99.90;;;;;;4900107;29;20269;-71
2022/03/23 10:40:53;;;;;;;20.03;3.13;;;20.80;99.90;;;;;;4900357;29;20189;-71
2022/03/23 10:43:34;;;;;;;14.30;3.57;;;20.90;99.90;;;;;;4900893;29;20186;-71
2022/03/23 10:46:11;;;;;;;25.60;3.73;;;20.90;99.90;;;;;;4919061;29;20178;-71
2022/03/23 10:48:51;;;;;;;15.93;3.03;;;20.90;99.90;;;;;;4918914;29;20233;-71
2022/03/23 10:51:30;;;;;;;25.07;3.33;;;20.90;99.90;;;;;;4918814;29;20270;-70
2022/03/23 10:53:59;;;;;;;20.17;2.93;;;20.90;99.90;;;;;;4917421;29;20276;-71
2022/03/23 10:56:44;;;;;;;18.97;3.00;;;20.90;99.90;;;;;;4918778;29;20213;-70
2022/03/23 10:59:26;;;;;;;20.33;4.07;;;20.90;99.90;;;;;;4917312;29;20185;-71
2022/03/23 11:02:07;;;;;;;17.57;3.33;;;20.90;99.90;;;;;;4918484;29;20234;-70
2022/03/23 11:04:44;;;;;;;17.40;2.80;;;20.90;99.90;;;;;;4918366;29;20551;-70
2022/03/23 11:07:30;;;;;;;16.60;3.37;;;21.00;99.90;;;;;;4918538;29;20261;-71
2022/03/23 11:15:47;;;;;;;17.90;3.13;;;20.90;99.90;;;;;;4899788;29;20225;-70
2022/03/23 11:18:20;;;;;;;18.53;2.53;;;20.90;99.90;;;;;;4914439;29;20523;-69
2022/03/23 11:20:56;;;;;;;16.70;3.47;;;20.90;99.90;;;;;;4918426;29;20192;-69
2022/03/23 11:23:37;;;;;;;16.97;3.00;;;21.00;99.90;;;;;;4918330;29;20177;-71
2022/03/23 11:26:11;;;;;;;16.20;3.57;;;21.00;99.90;;;;;;4917789;29;20643;-71
2022/03/23 11:28:46;;;;;;;13.57;2.70;;;21.00;99.90;;;;;;4917836;29;20638;-70
2022/03/23 11:31:19;;;;;;;14.87;3.70;;;21.00;99.90;;;;;;4916521;29;20634;-71
2022/03/23 11:33:51;;;;;;;13.30;2.93;;;21.00;99.90;;;;;;4914694;29;20215;-70
2022/03/23 11:36:20;;;;;;;15.70;2.77;;;21.00;99.90;;;;;;4917315;29;20213;-68
2022/03/23 11:38:52;;;;;;;10.97;2.90;;;21.00;99.90;;;;;;4917410;29;20189;-70
2022/03/23 11:41:21;;;;;;;17.37;2.80;;;20.90;99.90;;;;;;4916301;29;20255;-67
2022/03/23 11:43:48;;;;;;;17.43;3.90;;;20.90;99.90;;;;;;4917164;29;20627;-68
2022/03/23 11:46:22;;;;;;;17.50;2.73;;;20.90;99.90;;;;;;4917785;29;20635;-71
2022/03/23 11:49:11;;;;;;;12.00;2.90;;;20.90;99.90;;;;;;4917339;29;20260;-70
2022/03/23 11:51:56;;;;;;;18.00;2.97;;;20.90;99.90;;;;;;4916818;29;20250;-70
2022/03/23 11:57:55;;;;;;;15.70;3.20;;;20.80;99.90;;;;;;4916547;29;20204;-70
2022/03/23 12:00:37;;;;;;;17.43;2.87;;;20.80;99.90;;;;;;4917203;29;20189;-70
2022/03/23 12:03:05;;;;;;;20.17;3.17;;;20.90;99.90;;;;;;4914876;29;20216;-71
2022/03/23 12:05:36;;;;;;;19.50;3.30;;;20.80;99.90;;;;;;4917161;29;20562;-70
2022/03/23 12:08:04;;;;;;;17.20;3.27;;;20.80;99.90;;;;;;4915886;29;20217;-70
2022/03/23 12:10:42;;;;;;;17.67;3.83;;;20.80;99.90;;;;;;4917121;29;20208;-71
2022/03/23 12:13:19;;;;;;;13.40;3.37;;;20.80;99.90;;;;;;4917225;29;20231;-67
2022/03/23 12:15:58;;;;;;;15.27;3.40;;;20.80;99.90;;;;;;4915850;29;20662;-70
2022/03/23 12:18:58;;;;;;;12.73;2.97;;;20.70;99.90;;;;;;4916621;29;20185;-68
2022/03/23 12:21:30;;;;;;;19.40;3.27;;;20.70;99.90;;;;;;4913997;29;20209;-69
2022/03/23 12:24:23;;;;;;;15.27;3.33;;;20.70;99.90;;;;;;4913345;29;20188;-69
2022/03/23 12:26:56;;;;;;;13.90;2.83;;;20.70;99.90;;;;;;4914687;29;20187;-70
2022/03/23 12:29:33;;;;;;;20.60;3.67;;;20.60;99.90;;;;;;4916088;29;20263;-71
2022/03/23 12:32:10;;;;;;;14.23;3.30;;;20.70;99.90;;;;;;4916881;29;20590;-70
2022/03/23 12:34:41;;;;;;;14.33;2.67;;;20.60;99.90;;;;;;4917266;29;20180;-71
2022/03/23 12:37:14;;;;;;;17.33;3.23;;;20.70;99.90;;;;;;4917145;29;20276;-70
2022/03/23 12:39:53;;;;;;;14.57;3.83;;;20.70;99.90;;;;;;4916706;29;20185;-71
2022/03/23 12:42:22;;;;;;;14.13;2.70;;;20.60;99.90;;;;;;4917036;29;20192;-69
2022/03/23 12:45:04;;;;;;;17.67;3.53;;;20.70;99.90;;;;;;4917035;29;20181;-70
2022/03/23 12:47:34;;;;;;;20.90;4.00;;;20.70;99.90;;;;;;4917286;29;20215;-69
2022/03/23 12:58:37;;;;;;;15.90;3.10;;;20.60;99.90;;;;;;4917483;29;20256;-70
2022/03/23 13:01:19;;;;;;;18.73;3.70;;;20.60;99.90;;;;;;4919981;29;20313;-69
2022/03/23 13:03:47;;;;;;;13.97;3.10;;;20.60;99.90;;;;;;4920719;29;20671;-71
2022/03/23 13:06:30;;;;;;;16.77;3.10;;;20.60;99.90;;;;;;4920870;29;20303;-71
2022/03/23 13:08:59;;;;;;;19.20;3.50;;;20.60;99.90;;;;;;4920679;29;20208;-71
2022/03/23 13:11:32;;;;;;;13.83;2.63;;;20.50;99.90;;;;;;4920532;29;20658;-69
2022/03/23 13:14:01;;;;;;;13.20;3.27;;;20.60;99.90;;;;;;4920767;29;20184;-71
2022/03/23 13:16:37;;;;;;;15.77;3.47;;;20.50;99.90;;;;;;4920494;29;20224;-70
2022/03/23 13:19:08;;;;;;;12.90;3.13;;;20.40;99.90;;;;;;4920381;29;20240;-70
2022/03/23 13:21:38;;;;;;;19.07;4.80;;;20.40;99.90;;;;;;4920594;29;20651;-70
2022/03/23 13:24:07;;;;;;;17.00;3.23;;;20.40;99.90;;;;;;4920374;29;20174;-70
2022/03/23 13:26:39;;;;;;;11.33;3.17;;;20.40;99.90;;;;;;4920334;29;20181;-69
2022/03/23 13:29:10;;;;;;;18.07;3.20;;;20.40;99.90;;;;;;4920230;29;20683;-69